sensor_id;sensor_type;location;lat;lon;timestamp;P1;durP1;ratioP1;P2;durP2;ratioP2
12348;SDS011;5974;42.710;27.258;2022-09-28T00:02:06;2.30;;;2.13;;
12348;SDS011;5974;42.710;27.258;2022-09-28T00:04:33;2.33;;;2.13;;
12348;SDS011;5974;42.710;27.258;2022-09-28T00:06:59;2.80;;;2.60;;
12348;SDS011;5974;42.710;27.258;2022-09-28T00:09:28;3.20;;;2.30;;
12348;SDS011;5974;42.710;27.258;2022-09-28T00:11:54;2.47;;;2.37;;
12348;SDS011;5974;42.710;27.258;2022-09-28T00:14:21;4.27;;;2.30;;
12348;SDS011;5974;42.710;27.258;2022-09-28T00:16:48;4.33;;;2.80;;
12348;SDS011;5974;42.710;27.258;2022-09-28T00:19:14;2.40;;;2.27;;
12348;SDS011;5974;42.710;27.258;2022-09-28T00:21:41;4.03;;;2.80;;
12348;SDS011;5974;42.710;27.258;2022-09-28T00:24:10;2.67;;;2.47;;
12348;SDS011;5974;42.710;27.258;2022-09-28T00:26:46;2.97;;;2.70;;
12348;SDS011;5974;42.710;27.258;2022-09-28T00:29:14;2.43;;;2.27;;
12348;SDS011;5974;42.710;27.258;2022-09-28T00:31:41;2.70;;;2.50;;
12348;SDS011;5974;42.710;27.258;2022-09-28T00:34:08;2.57;;;2.37;;
12348;SDS011;5974;42.710;27.258;2022-09-28T00:36:34;2.70;;;2.50;;
12348;SDS011;5974;42.710;27.258;2022-09-28T00:39:02;2.67;;;2.23;;
12348;SDS011;5974;42.710;27.258;2022-09-28T00:41:29;4.07;;;2.20;;
12348;SDS011;5974;42.710;27.258;2022-09-28T00:46:39;2.40;;;2.30;;
12348;SDS011;5974;42.710;27.258;2022-09-28T00:49:08;3.23;;;2.50;;
12348;SDS011;5974;42.710;27.258;2022-09-28T00:51:36;2.63;;;2.40;;
12348;SDS011;5974;42.710;27.258;2022-09-28T00:54:04;3.10;;;2.43;;
12348;SDS011;5974;42.710;27.258;2022-09-28T00:56:31;2.50;;;2.27;;
12348;SDS011;5974;42.710;27.258;2022-09-28T00:58:59;2.40;;;2.20;;
12348;SDS011;5974;42.710;27.258;2022-09-28T01:01:28;2.47;;;2.27;;
12348;SDS011;5974;42.710;27.258;2022-09-28T01:03:58;2.40;;;2.30;;
12348;SDS011;5974;42.710;27.258;2022-09-28T01:06:27;2.20;;;2.00;;
12348;SDS011;5974;42.710;27.258;2022-09-28T01:08:56;2.57;;;2.40;;
12348;SDS011;5974;42.710;27.258;2022-09-28T01:11:24;1.90;;;1.80;;
12348;SDS011;5974;42.710;27.258;2022-09-28T01:13:51;3.97;;;2.57;;
12348;SDS011;5974;42.710;27.258;2022-09-28T01:16:22;2.80;;;2.57;;
12348;SDS011;5974;42.710;27.258;2022-09-28T01:18:53;2.37;;;2.27;;
12348;SDS011;5974;42.710;27.258;2022-09-28T01:21:23;2.53;;;2.33;;
12348;SDS011;5974;42.710;27.258;2022-09-28T01:24:13;2.20;;;2.00;;
12348;SDS011;5974;42.710;27.258;2022-09-28T01:26:42;4.20;;;2.10;;
12348;SDS011;5974;42.710;27.258;2022-09-28T01:29:14;3.53;;;1.93;;
12348;SDS011;5974;42.710;27.258;2022-09-28T01:31:43;2.00;;;1.90;;
12348;SDS011;5974;42.710;27.258;2022-09-28T01:34:12;2.43;;;2.23;;
12348;SDS011;5974;42.710;27.258;2022-09-28T01:36:41;1.57;;;1.47;;
12348;SDS011;5974;42.710;27.258;2022-09-28T01:39:09;2.00;;;1.90;;
12348;SDS011;5974;42.710;27.258;2022-09-28T01:41:38;1.83;;;1.73;;
12348;SDS011;5974;42.710;27.258;2022-09-28T01:44:07;2.10;;;2.00;;
12348;SDS011;5974;42.710;27.258;2022-09-28T01:46:36;1.80;;;1.70;;
12348;SDS011;5974;42.710;27.258;2022-09-28T01:49:04;2.43;;;1.90;;
12348;SDS011;5974;42.710;27.258;2022-09-28T01:51:35;3.67;;;1.60;;
12348;SDS011;5974;42.710;27.258;2022-09-28T01:54:05;1.40;;;1.40;;
12348;SDS011;5974;42.710;27.258;2022-09-28T01:56:33;2.23;;;1.50;;
12348;SDS011;5974;42.710;27.258;2022-09-28T01:59:04;1.73;;;1.63;;
12348;SDS011;5974;42.710;27.258;2022-09-28T02:01:35;1.60;;;1.50;;
12348;SDS011;5974;42.710;27.258;2022-09-28T02:04:03;1.70;;;1.60;;
12348;SDS011;5974;42.710;27.258;2022-09-28T02:06:35;1.43;;;1.43;;
12348;SDS011;5974;42.710;27.258;2022-09-28T02:09:05;1.83;;;1.73;;
12348;SDS011;5974;42.710;27.258;2022-09-28T02:11:34;1.70;;;1.60;;
12348;SDS011;5974;42.710;27.258;2022-09-28T02:14:02;1.40;;;1.40;;
12348;SDS011;5974;42.710;27.258;2022-09-28T02:16:30;4.93;;;2.17;;
12348;SDS011;5974;42.710;27.258;2022-09-28T02:19:01;1.70;;;1.60;;
12348;SDS011;5974;42.710;27.258;2022-09-28T02:21:30;1.60;;;1.50;;
12348;SDS011;5974;42.710;27.258;2022-09-28T02:23:59;1.97;;;1.60;;
12348;SDS011;5974;42.710;27.258;2022-09-28T02:26:28;1.70;;;1.60;;
12348;SDS011;5974;42.710;27.258;2022-09-28T02:28:56;1.77;;;1.67;;
12348;SDS011;5974;42.710;27.258;2022-09-28T02:31:24;1.50;;;1.50;;
12348;SDS011;5974;42.710;27.258;2022-09-28T02:33:51;1.63;;;1.53;;
12348;SDS011;5974;42.710;27.258;2022-09-28T02:36:20;1.40;;;1.40;;
12348;SDS011;5974;42.710;27.258;2022-09-28T02:38:47;1.67;;;1.57;;
12348;SDS011;5974;42.710;27.258;2022-09-28T02:41:17;1.30;;;1.30;;
12348;SDS011;5974;42.710;27.258;2022-09-28T02:43:49;1.37;;;1.30;;
12348;SDS011;5974;42.710;27.258;2022-09-28T02:46:21;1.90;;;1.30;;
12348;SDS011;5974;42.710;27.258;2022-09-28T02:48:53;2.30;;;1.43;;
12348;SDS011;5974;42.710;27.258;2022-09-28T02:51:25;1.90;;;1.20;;
12348;SDS011;5974;42.710;27.258;2022-09-28T02:54:09;1.30;;;1.30;;
12348;SDS011;5974;42.710;27.258;2022-09-28T02:56:52;1.67;;;1.57;;
12348;SDS011;5974;42.710;27.258;2022-09-28T03:02:05;3.53;;;1.53;;
12348;SDS011;5974;42.710;27.258;2022-09-28T03:04:36;1.70;;;1.60;;
12348;SDS011;5974;42.710;27.258;2022-09-28T03:07:08;1.57;;;1.50;;
12348;SDS011;5974;42.710;27.258;2022-09-28T03:09:38;1.60;;;1.33;;
12348;SDS011;5974;42.710;27.258;2022-09-28T03:12:07;1.73;;;1.63;;
12348;SDS011;5974;42.710;27.258;2022-09-28T03:14:35;1.50;;;1.40;;
12348;SDS011;5974;42.710;27.258;2022-09-28T03:17:02;1.70;;;1.60;;
12348;SDS011;5974;42.710;27.258;2022-09-28T03:19:29;1.77;;;1.63;;
12348;SDS011;5974;42.710;27.258;2022-09-28T03:21:56;2.60;;;1.70;;
12348;SDS011;5974;42.710;27.258;2022-09-28T03:24:24;1.50;;;1.40;;
12348;SDS011;5974;42.710;27.258;2022-09-28T03:26:51;2.10;;;1.70;;
12348;SDS011;5974;42.710;27.258;2022-09-28T03:29:18;1.43;;;1.43;;
12348;SDS011;5974;42.710;27.258;2022-09-28T03:31:45;1.77;;;1.67;;
12348;SDS011;5974;42.710;27.258;2022-09-28T03:34:11;1.80;;;1.60;;
12348;SDS011;5974;42.710;27.258;2022-09-28T03:36:38;1.83;;;1.73;;
12348;SDS011;5974;42.710;27.258;2022-09-28T03:39:05;1.50;;;1.50;;
12348;SDS011;5974;42.710;27.258;2022-09-28T03:41:33;3.00;;;2.07;;
12348;SDS011;5974;42.710;27.258;2022-09-28T03:43:59;1.93;;;1.80;;
12348;SDS011;5974;42.710;27.258;2022-09-28T03:46:26;2.07;;;1.87;;
12348;SDS011;5974;42.710;27.258;2022-09-28T03:48:55;3.63;;;1.70;;
12348;SDS011;5974;42.710;27.258;2022-09-28T03:51:21;2.47;;;1.77;;
12348;SDS011;5974;42.710;27.258;2022-09-28T03:53:48;5.83;;;1.93;;
12348;SDS011;5974;42.710;27.258;2022-09-28T03:56:14;1.73;;;1.60;;
12348;SDS011;5974;42.710;27.258;2022-09-28T03:58:43;5.00;;;1.70;;
12348;SDS011;5974;42.710;27.258;2022-09-28T04:01:10;1.53;;;1.50;;
12348;SDS011;5974;42.710;27.258;2022-09-28T04:03:37;1.60;;;1.50;;
12348;SDS011;5974;42.710;27.258;2022-09-28T04:06:04;1.80;;;1.70;;
12348;SDS011;5974;42.710;27.258;2022-09-28T04:08:30;2.50;;;1.63;;
12348;SDS011;5974;42.710;27.258;2022-09-28T04:10:57;1.90;;;1.80;;
12348;SDS011;5974;42.710;27.258;2022-09-28T04:13:24;1.80;;;1.70;;
12348;SDS011;5974;42.710;27.258;2022-09-28T04:15:52;2.00;;;1.90;;
12348;SDS011;5974;42.710;27.258;2022-09-28T04:18:19;2.37;;;1.70;;
12348;SDS011;5974;42.710;27.258;2022-09-28T04:20:46;2.13;;;1.53;;
12348;SDS011;5974;42.710;27.258;2022-09-28T04:23:13;1.73;;;1.60;;
12348;SDS011;5974;42.710;27.258;2022-09-28T04:25:39;1.73;;;1.63;;
12348;SDS011;5974;42.710;27.258;2022-09-28T04:28:06;3.47;;;1.90;;
12348;SDS011;5974;42.710;27.258;2022-09-28T04:30:50;4.47;;;1.80;;
12348;SDS011;5974;42.710;27.258;2022-09-28T04:33:18;2.00;;;1.90;;
12348;SDS011;5974;42.710;27.258;2022-09-28T04:35:45;2.63;;;1.90;;
12348;SDS011;5974;42.710;27.258;2022-09-28T04:38:12;2.47;;;1.90;;
12348;SDS011;5974;42.710;27.258;2022-09-28T04:40:39;2.63;;;1.90;;
12348;SDS011;5974;42.710;27.258;2022-09-28T04:43:05;1.77;;;1.67;;
12348;SDS011;5974;42.710;27.258;2022-09-28T04:45:32;1.83;;;1.73;;
12348;SDS011;5974;42.710;27.258;2022-09-28T04:47:58;4.27;;;1.90;;
12348;SDS011;5974;42.710;27.258;2022-09-28T04:50:26;5.10;;;1.80;;
12348;SDS011;5974;42.710;27.258;2022-09-28T04:52:53;2.53;;;1.90;;
12348;SDS011;5974;42.710;27.258;2022-09-28T04:55:20;2.20;;;1.60;;
12348;SDS011;5974;42.710;27.258;2022-09-28T04:57:46;2.40;;;1.60;;
12348;SDS011;5974;42.710;27.258;2022-09-28T05:00:13;1.57;;;1.47;;
12348;SDS011;5974;42.710;27.258;2022-09-28T05:02:40;1.70;;;1.40;;
12348;SDS011;5974;42.710;27.258;2022-09-28T05:05:07;5.10;;;1.17;;
12348;SDS011;5974;42.710;27.258;2022-09-28T05:07:35;5.93;;;1.97;;
12348;SDS011;5974;42.710;27.258;2022-09-28T05:10:02;2.43;;;1.47;;
12348;SDS011;5974;42.710;27.258;2022-09-28T05:12:30;2.80;;;1.20;;
12348;SDS011;5974;42.710;27.258;2022-09-28T05:14:56;15.63;;;14.03;;
12348;SDS011;5974;42.710;27.258;2022-09-28T05:17:24;13.67;;;9.30;;
12348;SDS011;5974;42.710;27.258;2022-09-28T05:19:51;15.20;;;13.77;;
12348;SDS011;5974;42.710;27.258;2022-09-28T05:22:17;13.30;;;7.83;;
12348;SDS011;5974;42.710;27.258;2022-09-28T05:24:45;22.23;;;18.30;;
12348;SDS011;5974;42.710;27.258;2022-09-28T05:27:12;24.13;;;16.43;;
12348;SDS011;5974;42.710;27.258;2022-09-28T05:29:38;29.27;;;22.00;;
12348;SDS011;5974;42.710;27.258;2022-09-28T05:32:05;22.13;;;16.20;;
12348;SDS011;5974;42.710;27.258;2022-09-28T05:34:32;34.30;;;24.10;;
12348;SDS011;5974;42.710;27.258;2022-09-28T05:36:58;16.97;;;12.47;;
12348;SDS011;5974;42.710;27.258;2022-09-28T05:39:25;122.37;;;54.93;;
12348;SDS011;5974;42.710;27.258;2022-09-28T05:41:53;86.80;;;42.85;;
12348;SDS011;5974;42.710;27.258;2022-09-28T05:44:20;20.23;;;11.32;;
12348;SDS011;5974;42.710;27.258;2022-09-28T05:46:46;20.35;;;10.52;;
12348;SDS011;5974;42.710;27.258;2022-09-28T05:49:13;19.38;;;11.55;;
12348;SDS011;5974;42.710;27.258;2022-09-28T05:51:39;11.90;;;6.57;;
12348;SDS011;5974;42.710;27.258;2022-09-28T05:54:07;19.35;;;8.68;;
12348;SDS011;5974;42.710;27.258;2022-09-28T05:56:33;16.52;;;8.68;;
12348;SDS011;5974;42.710;27.258;2022-09-28T05:59:01;8.98;;;5.75;;
12348;SDS011;5974;42.710;27.258;2022-09-28T06:01:29;13.35;;;7.55;;
12348;SDS011;5974;42.710;27.258;2022-09-28T06:03:55;8.68;;;5.35;;
12348;SDS011;5974;42.710;27.258;2022-09-28T06:06:22;10.23;;;6.78;;
12348;SDS011;5974;42.710;27.258;2022-09-28T06:08:49;9.02;;;6.20;;
12348;SDS011;5974;42.710;27.258;2022-09-28T06:11:15;20.35;;;11.07;;
12348;SDS011;5974;42.710;27.258;2022-09-28T06:13:42;49.88;;;30.02;;
12348;SDS011;5974;42.710;27.258;2022-09-28T06:16:13;16.25;;;10.05;;
12348;SDS011;5974;42.710;27.258;2022-09-28T06:18:40;13.85;;;6.45;;
12348;SDS011;5974;42.710;27.258;2022-09-28T06:21:07;4.22;;;3.83;;
12348;SDS011;5974;42.710;27.258;2022-09-28T06:23:35;4.28;;;2.83;;
12348;SDS011;5974;42.710;27.258;2022-09-28T06:26:02;11.48;;;5.25;;
12348;SDS011;5974;42.710;27.258;2022-09-28T06:28:29;7.55;;;4.03;;
12348;SDS011;5974;42.710;27.258;2022-09-28T06:30:57;7.93;;;3.30;;
12348;SDS011;5974;42.710;27.258;2022-09-28T06:33:25;34.72;;;27.23;;
12348;SDS011;5974;42.710;27.258;2022-09-28T06:35:52;27.15;;;20.88;;
12348;SDS011;5974;42.710;27.258;2022-09-28T06:38:19;7.40;;;4.80;;
12348;SDS011;5974;42.710;27.258;2022-09-28T06:40:45;118.72;;;90.43;;
12348;SDS011;5974;42.710;27.258;2022-09-28T06:43:12;67.13;;;48.03;;
12348;SDS011;5974;42.710;27.258;2022-09-28T06:45:40;57.72;;;50.83;;
12348;SDS011;5974;42.710;27.258;2022-09-28T06:48:07;24.67;;;22.02;;
12348;SDS011;5974;42.710;27.258;2022-09-28T06:50:36;17.08;;;10.85;;
12348;SDS011;5974;42.710;27.258;2022-09-28T06:53:04;5.75;;;3.28;;
12348;SDS011;5974;42.710;27.258;2022-09-28T06:55:31;6.47;;;2.33;;
12348;SDS011;5974;42.710;27.258;2022-09-28T06:57:58;2.95;;;2.00;;
12348;SDS011;5974;42.710;27.258;2022-09-28T07:00:25;5.18;;;2.13;;
12348;SDS011;5974;42.710;27.258;2022-09-28T07:02:51;2.50;;;1.92;;
12348;SDS011;5974;42.710;27.258;2022-09-28T07:05:18;2.80;;;1.67;;
12348;SDS011;5974;42.710;27.258;2022-09-28T07:07:53;3.33;;;2.00;;
12348;SDS011;5974;42.710;27.258;2022-09-28T07:10:20;4.40;;;1.90;;
12348;SDS011;5974;42.710;27.258;2022-09-28T07:12:48;2.15;;;1.77;;
12348;SDS011;5974;42.710;27.258;2022-09-28T07:15:15;2.17;;;1.70;;
12348;SDS011;5974;42.710;27.258;2022-09-28T07:17:41;3.45;;;1.65;;
12348;SDS011;5974;42.710;27.258;2022-09-28T07:20:08;3.40;;;1.70;;
12348;SDS011;5974;42.710;27.258;2022-09-28T07:22:35;3.58;;;2.00;;
12348;SDS011;5974;42.710;27.258;2022-09-28T07:25:03;8.02;;;2.30;;
12348;SDS011;5974;42.710;27.258;2022-09-28T07:27:30;3.17;;;1.65;;
12348;SDS011;5974;42.710;27.258;2022-09-28T07:29:56;7.00;;;2.23;;
12348;SDS011;5974;42.710;27.258;2022-09-28T07:32:24;2.30;;;2.10;;
12348;SDS011;5974;42.710;27.258;2022-09-28T07:34:50;2.43;;;1.80;;
12348;SDS011;5974;42.710;27.258;2022-09-28T07:37:17;5.13;;;2.27;;
12348;SDS011;5974;42.710;27.258;2022-09-28T07:39:44;3.73;;;1.97;;
12348;SDS011;5974;42.710;27.258;2022-09-28T07:42:29;3.53;;;1.60;;
12348;SDS011;5974;42.710;27.258;2022-09-28T07:44:56;2.77;;;1.80;;
12348;SDS011;5974;42.710;27.258;2022-09-28T07:47:23;1.87;;;1.57;;
12348;SDS011;5974;42.710;27.258;2022-09-28T07:49:51;2.60;;;1.50;;
12348;SDS011;5974;42.710;27.258;2022-09-28T07:52:19;2.57;;;1.80;;
12348;SDS011;5974;42.710;27.258;2022-09-28T07:54:48;4.87;;;1.90;;
12348;SDS011;5974;42.710;27.258;2022-09-28T07:57:16;4.57;;;1.90;;
12348;SDS011;5974;42.710;27.258;2022-09-28T07:59:44;3.00;;;1.83;;
12348;SDS011;5974;42.710;27.258;2022-09-28T08:02:11;5.27;;;1.90;;
12348;SDS011;5974;42.710;27.258;2022-09-28T08:04:38;3.23;;;1.63;;
12348;SDS011;5974;42.710;27.258;2022-09-28T08:07:07;3.07;;;1.77;;
12348;SDS011;5974;42.710;27.258;2022-09-28T08:09:33;5.43;;;1.50;;
12348;SDS011;5974;42.710;27.258;2022-09-28T08:12:00;1.93;;;1.50;;
12348;SDS011;5974;42.710;27.258;2022-09-28T08:14:28;3.13;;;1.20;;
12348;SDS011;5974;42.710;27.258;2022-09-28T08:16:59;1.67;;;1.33;;
12348;SDS011;5974;42.710;27.258;2022-09-28T08:19:26;5.57;;;1.60;;
12348;SDS011;5974;42.710;27.258;2022-09-28T08:22:15;2.27;;;1.37;;
12348;SDS011;5974;42.710;27.258;2022-09-28T08:24:41;2.03;;;1.43;;
12348;SDS011;5974;42.710;27.258;2022-09-28T08:27:08;1.23;;;1.20;;
12348;SDS011;5974;42.710;27.258;2022-09-28T08:29:34;5.90;;;1.60;;
12348;SDS011;5974;42.710;27.258;2022-09-28T08:32:02;2.83;;;1.27;;
12348;SDS011;5974;42.710;27.258;2022-09-28T08:34:30;2.03;;;1.30;;
12348;SDS011;5974;42.710;27.258;2022-09-28T08:36:56;1.37;;;1.23;;
12348;SDS011;5974;42.710;27.258;2022-09-28T08:39:23;1.33;;;1.23;;
12348;SDS011;5974;42.710;27.258;2022-09-28T08:41:52;2.10;;;1.67;;
12348;SDS011;5974;42.710;27.258;2022-09-28T08:44:24;2.70;;;1.37;;
12348;SDS011;5974;42.710;27.258;2022-09-28T08:46:54;2.97;;;1.50;;
12348;SDS011;5974;42.710;27.258;2022-09-28T08:49:24;2.53;;;1.43;;
12348;SDS011;5974;42.710;27.258;2022-09-28T08:51:53;4.60;;;1.30;;
12348;SDS011;5974;42.710;27.258;2022-09-28T08:54:24;2.17;;;1.40;;
12348;SDS011;5974;42.710;27.258;2022-09-28T08:56:53;2.07;;;1.20;;
12348;SDS011;5974;42.710;27.258;2022-09-28T08:59:21;1.53;;;1.27;;
12348;SDS011;5974;42.710;27.258;2022-09-28T09:01:49;1.20;;;1.10;;
12348;SDS011;5974;42.710;27.258;2022-09-28T09:04:18;4.90;;;1.47;;
12348;SDS011;5974;42.710;27.258;2022-09-28T09:06:52;4.00;;;1.60;;
12348;SDS011;5974;42.710;27.258;2022-09-28T09:09:22;3.03;;;1.50;;
12348;SDS011;5974;42.710;27.258;2022-09-28T09:11:54;2.17;;;1.20;;
12348;SDS011;5974;42.710;27.258;2022-09-28T09:14:30;2.57;;;1.40;;
12348;SDS011;5974;42.710;27.258;2022-09-28T09:17:00;3.07;;;1.40;;
12348;SDS011;5974;42.710;27.258;2022-09-28T09:19:33;3.27;;;1.30;;
12348;SDS011;5974;42.710;27.258;2022-09-28T09:22:04;2.90;;;1.37;;
12348;SDS011;5974;42.710;27.258;2022-09-28T09:24:37;3.10;;;1.23;;
12348;SDS011;5974;42.710;27.258;2022-09-28T09:27:12;2.07;;;1.30;;
12348;SDS011;5974;42.710;27.258;2022-09-28T09:29:50;1.60;;;1.30;;
12348;SDS011;5974;42.710;27.258;2022-09-28T09:32:28;3.93;;;1.23;;
12348;SDS011;5974;42.710;27.258;2022-09-28T09:35:06;2.07;;;1.30;;
12348;SDS011;5974;42.710;27.258;2022-09-28T09:37:56;4.50;;;1.50;;
12348;SDS011;5974;42.710;27.258;2022-09-28T09:40:31;2.90;;;1.30;;
12348;SDS011;5974;42.710;27.258;2022-09-28T09:43:04;2.70;;;1.17;;
12348;SDS011;5974;42.710;27.258;2022-09-28T09:45:48;2.47;;;1.30;;
12348;SDS011;5974;42.710;27.258;2022-09-28T09:48:20;1.37;;;1.20;;
12348;SDS011;5974;42.710;27.258;2022-09-28T09:50:50;2.43;;;1.50;;
12348;SDS011;5974;42.710;27.258;2022-09-28T09:53:22;4.53;;;1.50;;
12348;SDS011;5974;42.710;27.258;2022-09-28T09:55:50;6.47;;;1.10;;
12348;SDS011;5974;42.710;27.258;2022-09-28T09:58:22;4.20;;;1.33;;
12348;SDS011;5974;42.710;27.258;2022-09-28T10:00:49;5.10;;;1.60;;
12348;SDS011;5974;42.710;27.258;2022-09-28T10:03:18;2.27;;;1.47;;
12348;SDS011;5974;42.710;27.258;2022-09-28T10:05:47;1.13;;;1.07;;
12348;SDS011;5974;42.710;27.258;2022-09-28T10:08:16;1.57;;;1.33;;
12348;SDS011;5974;42.710;27.258;2022-09-28T10:10:47;3.20;;;1.37;;
12348;SDS011;5974;42.710;27.258;2022-09-28T10:13:14;4.53;;;1.30;;
12348;SDS011;5974;42.710;27.258;2022-09-28T10:15:41;3.60;;;1.30;;
12348;SDS011;5974;42.710;27.258;2022-09-28T10:18:10;1.57;;;1.40;;
12348;SDS011;5974;42.710;27.258;2022-09-28T10:20:40;1.37;;;1.00;;
12348;SDS011;5974;42.710;27.258;2022-09-28T10:23:11;3.23;;;1.90;;
12348;SDS011;5974;42.710;27.258;2022-09-28T10:25:40;4.17;;;1.47;;
12348;SDS011;5974;42.710;27.258;2022-09-28T10:28:10;3.70;;;1.27;;
12348;SDS011;5974;42.710;27.258;2022-09-28T10:30:41;5.27;;;1.47;;
12348;SDS011;5974;42.710;27.258;2022-09-28T10:33:13;3.20;;;1.33;;
12348;SDS011;5974;42.710;27.258;2022-09-28T10:35:51;2.43;;;1.27;;
12348;SDS011;5974;42.710;27.258;2022-09-28T10:38:18;2.27;;;1.07;;
12348;SDS011;5974;42.710;27.258;2022-09-28T10:40:46;1.53;;;1.20;;
12348;SDS011;5974;42.710;27.258;2022-09-28T10:43:17;5.13;;;1.63;;
12348;SDS011;5974;42.710;27.258;2022-09-28T10:45:45;2.27;;;1.30;;
12348;SDS011;5974;42.710;27.258;2022-09-28T10:48:15;4.03;;;1.43;;
12348;SDS011;5974;42.710;27.258;2022-09-28T10:50:43;2.20;;;1.20;;
12348;SDS011;5974;42.710;27.258;2022-09-28T10:53:22;1.73;;;1.20;;
12348;SDS011;5974;42.710;27.258;2022-09-28T10:55:56;3.20;;;1.20;;
12348;SDS011;5974;42.710;27.258;2022-09-28T10:58:26;1.37;;;1.00;;
12348;SDS011;5974;42.710;27.258;2022-09-28T11:00:57;4.43;;;1.27;;
12348;SDS011;5974;42.710;27.258;2022-09-28T11:03:25;1.40;;;1.00;;
12348;SDS011;5974;42.710;27.258;2022-09-28T11:05:53;1.80;;;1.07;;
12348;SDS011;5974;42.710;27.258;2022-09-28T11:08:21;1.50;;;1.00;;
12348;SDS011;5974;42.710;27.258;2022-09-28T11:10:59;1.93;;;1.00;;
12348;SDS011;5974;42.710;27.258;2022-09-28T11:13:28;5.30;;;1.10;;
12348;SDS011;5974;42.710;27.258;2022-09-28T11:15:55;1.70;;;1.27;;
12348;SDS011;5974;42.710;27.258;2022-09-28T11:18:24;2.70;;;1.20;;
12348;SDS011;5974;42.710;27.258;2022-09-28T11:20:51;1.33;;;1.10;;
12348;SDS011;5974;42.710;27.258;2022-09-28T11:23:19;1.60;;;1.17;;
12348;SDS011;5974;42.710;27.258;2022-09-28T11:25:56;2.33;;;1.00;;
12348;SDS011;5974;42.710;27.258;2022-09-28T11:28:25;1.50;;;1.10;;
12348;SDS011;5974;42.710;27.258;2022-09-28T11:30:54;2.83;;;1.20;;
12348;SDS011;5974;42.710;27.258;2022-09-28T11:33:23;2.30;;;0.90;;
12348;SDS011;5974;42.710;27.258;2022-09-28T11:35:54;2.20;;;1.17;;
12348;SDS011;5974;42.710;27.258;2022-09-28T11:38:28;1.33;;;1.20;;
12348;SDS011;5974;42.710;27.258;2022-09-28T11:41:11;3.37;;;1.30;;
12348;SDS011;5974;42.710;27.258;2022-09-28T11:43:46;1.47;;;1.30;;
12348;SDS011;5974;42.710;27.258;2022-09-28T11:46:21;1.30;;;1.20;;
12348;SDS011;5974;42.710;27.258;2022-09-28T11:48:51;2.60;;;1.20;;
12348;SDS011;5974;42.710;27.258;2022-09-28T11:51:21;2.03;;;1.27;;
12348;SDS011;5974;42.710;27.258;2022-09-28T11:53:49;1.77;;;1.20;;
12348;SDS011;5974;42.710;27.258;2022-09-28T11:56:17;2.20;;;1.40;;
12348;SDS011;5974;42.710;27.258;2022-09-28T11:58:47;2.13;;;1.10;;
12348;SDS011;5974;42.710;27.258;2022-09-28T12:01:17;1.73;;;1.27;;
12348;SDS011;5974;42.710;27.258;2022-09-28T12:03:49;1.80;;;1.37;;
12348;SDS011;5974;42.710;27.258;2022-09-28T12:06:17;1.70;;;1.20;;
12348;SDS011;5974;42.710;27.258;2022-09-28T12:08:45;1.43;;;1.10;;
12348;SDS011;5974;42.710;27.258;2022-09-28T12:11:13;3.83;;;1.23;;
12348;SDS011;5974;42.710;27.258;2022-09-28T12:13:41;1.50;;;1.40;;
12348;SDS011;5974;42.710;27.258;2022-09-28T12:16:12;3.13;;;1.33;;
12348;SDS011;5974;42.710;27.258;2022-09-28T12:18:42;3.83;;;1.30;;
12348;SDS011;5974;42.710;27.258;2022-09-28T12:21:17;1.33;;;1.20;;
12348;SDS011;5974;42.710;27.258;2022-09-28T12:23:47;3.77;;;1.43;;
12348;SDS011;5974;42.710;27.258;2022-09-28T12:26:25;1.40;;;1.30;;
12348;SDS011;5974;42.710;27.258;2022-09-28T12:28:54;4.73;;;1.30;;
12348;SDS011;5974;42.710;27.258;2022-09-28T12:31:22;4.00;;;1.20;;
12348;SDS011;5974;42.710;27.258;2022-09-28T12:33:51;2.47;;;1.30;;
12348;SDS011;5974;42.710;27.258;2022-09-28T12:36:23;2.33;;;1.10;;
12348;SDS011;5974;42.710;27.258;2022-09-28T12:39:07;1.17;;;1.17;;
12348;SDS011;5974;42.710;27.258;2022-09-28T12:41:40;2.57;;;1.30;;
12348;SDS011;5974;42.710;27.258;2022-09-28T12:44:22;1.50;;;1.20;;
12348;SDS011;5974;42.710;27.258;2022-09-28T12:46:55;1.97;;;1.30;;
12348;SDS011;5974;42.710;27.258;2022-09-28T12:49:29;3.87;;;1.30;;
12348;SDS011;5974;42.710;27.258;2022-09-28T12:52:00;4.73;;;1.50;;
12348;SDS011;5974;42.710;27.258;2022-09-28T12:54:37;1.70;;;1.20;;
12348;SDS011;5974;42.710;27.258;2022-09-28T12:59:56;2.27;;;1.60;;
12348;SDS011;5974;42.710;27.258;2022-09-28T13:05:23;2.07;;;1.30;;
12348;SDS011;5974;42.710;27.258;2022-09-28T13:07:55;5.40;;;1.50;;
12348;SDS011;5974;42.710;27.258;2022-09-28T13:10:25;2.40;;;1.20;;
12348;SDS011;5974;42.710;27.258;2022-09-28T13:13:07;2.13;;;1.17;;
12348;SDS011;5974;42.710;27.258;2022-09-28T13:15:42;2.40;;;1.40;;
12348;SDS011;5974;42.710;27.258;2022-09-28T13:18:16;1.67;;;1.30;;
12348;SDS011;5974;42.710;27.258;2022-09-28T13:20:50;1.33;;;1.07;;
12348;SDS011;5974;42.710;27.258;2022-09-28T13:23:20;1.70;;;1.40;;
12348;SDS011;5974;42.710;27.258;2022-09-28T13:25:52;1.50;;;1.40;;
12348;SDS011;5974;42.710;27.258;2022-09-28T13:28:20;1.63;;;1.43;;
12348;SDS011;5974;42.710;27.258;2022-09-28T13:30:48;1.37;;;1.27;;
12348;SDS011;5974;42.710;27.258;2022-09-28T13:33:18;2.20;;;1.40;;
12348;SDS011;5974;42.710;27.258;2022-09-28T13:35:45;1.57;;;1.40;;
12348;SDS011;5974;42.710;27.258;2022-09-28T13:38:28;1.10;;;1.10;;
12348;SDS011;5974;42.710;27.258;2022-09-28T13:41:11;1.77;;;1.50;;
12348;SDS011;5974;42.710;27.258;2022-09-28T13:43:45;2.13;;;1.30;;
12348;SDS011;5974;42.710;27.258;2022-09-28T13:46:19;1.60;;;1.50;;
12348;SDS011;5974;42.710;27.258;2022-09-28T13:48:50;4.33;;;1.60;;
12348;SDS011;5974;42.710;27.258;2022-09-28T13:51:24;2.73;;;1.23;;
12348;SDS011;5974;42.710;27.258;2022-09-28T13:56:41;2.63;;;1.40;;
12348;SDS011;5974;42.710;27.258;2022-09-28T13:59:14;1.43;;;1.33;;
12348;SDS011;5974;42.710;27.258;2022-09-28T14:01:43;1.70;;;1.60;;
12348;SDS011;5974;42.710;27.258;2022-09-28T14:04:14;1.40;;;1.30;;
12348;SDS011;5974;42.710;27.258;2022-09-28T14:06:42;1.60;;;1.50;;
12348;SDS011;5974;42.710;27.258;2022-09-28T14:12:01;2.67;;;1.53;;
12348;SDS011;5974;42.710;27.258;2022-09-28T14:14:48;3.90;;;1.50;;
12348;SDS011;5974;42.710;27.258;2022-09-28T14:20:15;2.33;;;1.50;;
12348;SDS011;5974;42.710;27.258;2022-09-28T14:22:44;4.83;;;1.83;;
12348;SDS011;5974;42.710;27.258;2022-09-28T14:25:15;5.10;;;2.60;;
12348;SDS011;5974;42.710;27.258;2022-09-28T14:30:44;5.17;;;2.70;;
12348;SDS011;5974;42.710;27.258;2022-09-28T14:33:15;3.27;;;2.20;;
12348;SDS011;5974;42.710;27.258;2022-09-28T14:35:48;3.23;;;1.80;;
12348;SDS011;5974;42.710;27.258;2022-09-28T14:38:16;3.77;;;1.40;;
12348;SDS011;5974;42.710;27.258;2022-09-28T14:41:02;3.07;;;1.30;;
12348;SDS011;5974;42.710;27.258;2022-09-28T14:43:36;2.40;;;1.53;;
12348;SDS011;5974;42.710;27.258;2022-09-28T14:48:49;3.30;;;1.80;;
12348;SDS011;5974;42.710;27.258;2022-09-28T14:54:03;3.37;;;1.37;;
12348;SDS011;5974;42.710;27.258;2022-09-28T14:56:30;2.47;;;1.50;;
12348;SDS011;5974;42.710;27.258;2022-09-28T14:58:58;3.07;;;1.50;;
12348;SDS011;5974;42.710;27.258;2022-09-28T15:01:25;3.60;;;1.50;;
12348;SDS011;5974;42.710;27.258;2022-09-28T15:03:55;3.07;;;1.70;;
12348;SDS011;5974;42.710;27.258;2022-09-28T15:06:24;6.10;;;2.40;;
12348;SDS011;5974;42.710;27.258;2022-09-28T15:08:53;3.40;;;1.70;;
12348;SDS011;5974;42.710;27.258;2022-09-28T15:11:19;5.90;;;2.47;;
12348;SDS011;5974;42.710;27.258;2022-09-28T15:13:47;5.70;;;2.77;;
12348;SDS011;5974;42.710;27.258;2022-09-28T15:16:17;6.93;;;2.90;;
12348;SDS011;5974;42.710;27.258;2022-09-28T15:18:59;4.77;;;2.50;;
12348;SDS011;5974;42.710;27.258;2022-09-28T15:21:31;3.30;;;2.73;;
12348;SDS011;5974;42.710;27.258;2022-09-28T15:23:58;9.33;;;4.83;;
12348;SDS011;5974;42.710;27.258;2022-09-28T15:26:27;11.63;;;5.90;;
12348;SDS011;5974;42.710;27.258;2022-09-28T15:28:55;7.20;;;3.20;;